createdAt,value
2017-11-23T00:00:27.800Z,56.70
2017-11-23T00:02:56.101Z,56.70
2017-11-23T00:05:23.656Z,56.70
2017-11-23T00:07:51.188Z,56.90
2017-11-23T00:10:18.756Z,56.70
2017-11-23T00:12:46.324Z,56.60
2017-11-23T00:15:14.693Z,56.80
2017-11-23T00:17:43.006Z,56.70
2017-11-23T00:20:10.902Z,56.70
2017-11-23T00:22:38.426Z,57.10
2017-11-23T00:25:06.044Z,56.50
2017-11-23T00:27:33.660Z,57.00
2017-11-23T00:30:01.179Z,57.10
2017-11-23T00:32:28.745Z,57.00
2017-11-23T00:34:57.039Z,57.10
2017-11-23T00:37:24.628Z,57.00
2017-11-23T00:39:52.142Z,56.60
2017-11-23T00:42:19.746Z,56.10
2017-11-23T00:44:48.087Z,55.90
2017-11-23T00:47:15.839Z,55.90
2017-11-23T00:49:43.370Z,56.30
2017-11-23T00:52:10.904Z,56.60
2017-11-23T00:54:38.546Z,56.40
2017-11-23T00:57:06.103Z,56.50
2017-11-23T00:59:34.428Z,56.90
2017-11-23T01:02:01.964Z,56.80
2017-11-23T01:04:29.611Z,56.60
2017-11-23T01:06:57.319Z,56.30
2017-11-23T01:09:24.881Z,56.90
2017-11-23T01:11:52.412Z,56.30
2017-11-23T01:14:19.949Z,56.60
2017-11-23T01:16:47.507Z,56.60
2017-11-23T01:19:15.054Z,56.80
2017-11-23T01:21:43.338Z,57.10
2017-11-23T01:24:11.220Z,57.00
2017-11-23T01:26:38.748Z,57.10
2017-11-23T01:29:06.308Z,57.00
2017-11-23T01:31:33.861Z,56.90
2017-11-23T01:34:02.143Z,56.90
2017-11-23T01:36:29.706Z,56.30
2017-11-23T01:38:57.995Z,56.30
2017-11-23T01:41:25.582Z,56.30
2017-11-23T01:43:53.908Z,56.50
2017-11-23T01:46:22.530Z,56.40
2017-11-23T01:48:50.097Z,56.40
2017-11-23T01:51:17.653Z,56.30
2017-11-23T01:53:45.232Z,56.30
2017-11-23T01:56:12.765Z,56.30
2017-11-23T01:58:40.286Z,56.30
2017-11-23T02:01:07.848Z,56.10
2017-11-23T02:03:35.375Z,56.00
2017-11-23T02:06:02.937Z,56.20
2017-11-23T02:08:30.456Z,56.30
2017-11-23T02:10:58.002Z,56.60
2017-11-23T02:13:25.570Z,56.90
2017-11-23T02:15:53.122Z,57.10
2017-11-23T02:18:20.671Z,56.70
2017-11-23T02:20:48.227Z,56.80
2017-11-23T02:23:16.522Z,57.30
2017-11-23T02:25:44.292Z,56.70
2017-11-23T02:28:11.812Z,56.60
2017-11-23T02:30:39.362Z,56.50
2017-11-23T02:33:06.920Z,56.60
2017-11-23T02:35:34.443Z,56.10
2017-11-23T02:38:02.004Z,56.00
2017-11-23T02:40:29.547Z,56.10
2017-11-23T02:42:57.091Z,56.10
2017-11-23T02:45:24.645Z,56.10
2017-11-23T02:47:52.941Z,56.40
2017-11-23T02:50:20.510Z,56.30
2017-11-23T02:52:48.059Z,56.00
2017-11-23T02:55:15.641Z,56.20
2017-11-23T02:57:43.162Z,56.00
2017-11-23T03:00:11.512Z,56.10
2017-11-23T03:02:39.074Z,56.00
2017-11-23T03:05:06.614Z,56.10
2017-11-23T03:07:34.131Z,55.90
2017-11-23T03:10:01.750Z,56.00
2017-11-23T03:12:29.262Z,56.20
2017-11-23T03:14:56.870Z,56.30
2017-11-23T03:17:24.428Z,56.30
2017-11-23T03:19:51.937Z,56.60
2017-11-23T03:22:19.530Z,56.40
2017-11-23T03:24:47.074Z,56.40
2017-11-23T03:27:14.619Z,56.20
2017-11-23T03:29:42.175Z,56.40
2017-11-23T03:32:09.733Z,56.20
2017-11-23T03:34:38.045Z,56.20
2017-11-23T03:37:05.558Z,56.10
2017-11-23T03:39:33.890Z,56.20
2017-11-23T03:42:01.410Z,56.10
2017-11-23T03:44:28.983Z,55.90
2017-11-23T03:46:56.574Z,56.00
2017-11-23T03:49:24.090Z,56.00
2017-11-23T03:51:51.633Z,55.70
2017-11-23T03:54:19.161Z,56.10
2017-11-23T03:56:46.754Z,56.00
2017-11-23T03:59:15.084Z,56.00
2017-11-23T04:01:42.610Z,56.00
2017-11-23T04:04:10.213Z,55.80
2017-11-23T04:06:37.709Z,55.40
2017-11-23T04:09:05.390Z,55.30
2017-11-23T04:11:32.967Z,55.40
2017-11-23T04:14:00.841Z,55.60
2017-11-23T04:16:28.372Z,55.60
2017-11-23T04:18:55.894Z,55.60
2017-11-23T04:21:23.476Z,55.70
2017-11-23T04:23:51.824Z,55.80
2017-11-23T04:26:19.335Z,55.70
2017-11-23T04:28:46.892Z,55.70
2017-11-23T04:31:14.452Z,56.60
2017-11-23T04:33:42.014Z,56.00
2017-11-23T04:36:09.537Z,56.10
2017-11-23T04:38:37.090Z,56.00
2017-11-23T04:41:04.625Z,56.00
2017-11-23T04:43:32.191Z,56.20
2017-11-23T04:45:59.751Z,55.70
2017-11-23T04:48:27.319Z,55.90
2017-11-23T04:50:54.866Z,56.00
2017-11-23T04:53:22.377Z,56.00
2017-11-23T04:55:49.939Z,56.20
2017-11-23T04:58:17.462Z,56.00
2017-11-23T05:00:45.041Z,56.00
2017-11-23T05:03:13.349Z,55.80
2017-11-23T05:05:40.992Z,55.80
2017-11-23T05:08:08.789Z,56.10
2017-11-23T05:10:36.362Z,56.20
2017-11-23T05:13:03.919Z,56.00
2017-11-23T05:15:31.438Z,56.20
2017-11-23T05:17:58.994Z,56.30
2017-11-23T05:20:27.333Z,56.20
2017-11-23T05:22:54.860Z,56.20
2017-11-23T05:25:22.459Z,56.10
2017-11-23T05:27:50.032Z,55.80
2017-11-23T05:30:17.556Z,55.80
2017-11-23T05:32:45.108Z,55.80
2017-11-23T05:35:12.682Z,55.80
2017-11-23T05:37:40.211Z,55.20
2017-11-23T05:40:08.643Z,55.70
2017-11-23T05:42:36.234Z,55.70
2017-11-23T05:45:03.776Z,55.60
2017-11-23T05:47:32.527Z,55.50
2017-11-23T05:50:00.135Z,55.50
2017-11-23T05:52:27.665Z,55.40
2017-11-23T05:54:55.230Z,55.70
2017-11-23T05:57:22.791Z,56.00
2017-11-23T05:59:50.317Z,56.10
2017-11-23T06:02:17.886Z,56.40
2017-11-23T06:04:45.632Z,56.30
2017-11-23T06:07:13.214Z,56.20
2017-11-23T06:09:40.778Z,56.20
2017-11-23T06:12:08.309Z,56.20
2017-11-23T06:14:35.876Z,56.10
2017-11-23T06:17:03.479Z,55.80
2017-11-23T06:19:31.029Z,55.90
2017-11-23T06:21:59.363Z,56.40
2017-11-23T06:24:26.998Z,56.40
2017-11-23T06:26:54.557Z,56.50
2017-11-23T06:29:22.864Z,56.80
2017-11-23T06:31:50.425Z,56.70
2017-11-23T06:34:17.953Z,56.50
2017-11-23T06:36:45.513Z,56.00
2017-11-23T06:39:13.067Z,56.20
2017-11-23T06:41:41.364Z,56.40
2017-11-23T06:44:09.276Z,56.40
2017-11-23T06:46:36.819Z,56.20
2017-11-23T06:49:04.472Z,56.20
2017-11-23T06:51:32.024Z,56.30
2017-11-23T06:53:59.553Z,56.20
2017-11-23T06:56:27.116Z,56.00
2017-11-23T06:58:55.440Z,55.20
2017-11-23T07:01:23.035Z,55.20
2017-11-23T07:03:50.627Z,55.20
2017-11-23T07:06:18.174Z,55.20
2017-11-23T07:08:46.589Z,55.60
2017-11-23T07:11:14.149Z,55.60
2017-11-23T07:13:41.672Z,55.60
2017-11-23T07:16:09.291Z,55.90
2017-11-23T07:18:36.859Z,56.00
2017-11-23T07:21:04.499Z,55.90
2017-11-23T07:23:32.040Z,55.80
2017-11-23T07:25:59.731Z,55.70
2017-11-23T07:28:29.235Z,55.70
2017-11-23T07:30:57.702Z,55.80
2017-11-23T07:33:25.254Z,56.00
2017-11-23T07:35:52.774Z,56.20
2017-11-23T07:38:21.308Z,56.50
2017-11-23T07:40:49.204Z,56.10
2017-11-23T07:43:16.760Z,55.80
2017-11-23T07:45:44.288Z,55.80
2017-11-23T07:48:11.865Z,55.10
2017-11-23T07:50:39.410Z,54.90
2017-11-23T07:53:06.951Z,54.80
2017-11-23T07:55:34.479Z,55.00
2017-11-23T07:58:02.237Z,54.60
2017-11-23T08:00:29.793Z,55.00
2017-11-23T08:02:57.633Z,55.70
2017-11-23T08:05:25.345Z,55.60
2017-11-23T08:07:52.950Z,55.30
2017-11-23T08:10:20.572Z,55.10
2017-11-23T08:12:48.881Z,55.30
2017-11-23T08:15:16.506Z,55.10
2017-11-23T08:17:44.855Z,55.10
2017-11-23T08:20:13.190Z,54.60
2017-11-23T08:22:40.761Z,55.10
2017-11-23T08:25:08.370Z,55.50
2017-11-23T08:27:35.934Z,55.40
2017-11-23T08:30:04.248Z,55.40
2017-11-23T08:32:31.809Z,55.30
2017-11-23T08:34:59.345Z,55.00
2017-11-23T08:37:26.948Z,54.90
2017-11-23T08:39:54.555Z,54.90
2017-11-23T08:42:22.461Z,54.90
2017-11-23T08:44:50.041Z,54.70
2017-11-23T08:47:17.568Z,54.70
2017-11-23T08:49:45.101Z,54.70
2017-11-23T08:52:12.698Z,54.60
2017-11-23T08:54:45.840Z,54.50
2017-11-23T08:57:13.449Z,54.50
2017-11-23T08:59:40.992Z,54.60
2017-11-23T09:02:08.540Z,54.50
2017-11-23T09:04:36.152Z,54.90
2017-11-23T09:07:03.974Z,54.90
2017-11-23T09:09:31.525Z,54.80
2017-11-23T09:11:59.102Z,54.90
2017-11-23T09:14:26.704Z,54.90
2017-11-23T09:16:54.222Z,55.10
2017-11-23T09:19:21.818Z,55.40
2017-11-23T09:21:49.411Z,55.20
2017-11-23T09:24:16.989Z,55.00
2017-11-23T09:26:44.786Z,55.10
2017-11-23T09:29:12.467Z,55.20
2017-11-23T09:31:40.020Z,55.00
2017-11-23T09:34:07.574Z,55.00
2017-11-23T09:36:35.157Z,55.00
2017-11-23T09:39:02.672Z,55.20
2017-11-23T09:41:30.245Z,55.40
2017-11-23T09:43:57.829Z,55.80
2017-11-23T09:46:25.480Z,55.90
2017-11-23T09:48:53.502Z,56.10
2017-11-23T09:51:21.048Z,56.10
2017-11-23T09:53:48.568Z,56.60
2017-11-23T09:56:16.158Z,56.50
2017-11-23T09:58:44.718Z,56.40
2017-11-23T10:01:12.578Z,56.90
2017-11-23T10:03:40.379Z,56.40
2017-11-23T10:06:08.699Z,56.00
2017-11-23T10:08:36.472Z,56.00
2017-11-23T10:11:04.081Z,56.20
2017-11-23T10:13:31.660Z,55.80
2017-11-23T10:15:59.248Z,55.60
2017-11-23T10:18:26.779Z,55.80
2017-11-23T10:20:54.344Z,56.20
2017-11-23T10:23:22.468Z,56.20
2017-11-23T10:25:50.021Z,56.40
2017-11-23T10:28:17.607Z,55.70
2017-11-23T10:30:45.206Z,55.80
2017-11-23T10:33:12.794Z,55.80
2017-11-23T10:35:40.334Z,56.00
2017-11-23T10:38:08.162Z,56.70
2017-11-23T10:40:35.771Z,55.90
2017-11-23T10:43:03.330Z,56.10
2017-11-23T10:45:31.094Z,56.10
2017-11-23T10:47:58.656Z,55.10
2017-11-23T10:50:26.218Z,56.10
2017-11-23T10:52:53.829Z,55.20
2017-11-23T10:55:21.385Z,55.20
2017-11-23T10:57:48.970Z,55.40
2017-11-23T11:00:16.757Z,55.40
2017-11-23T11:02:44.312Z,55.30
2017-11-23T11:05:11.880Z,55.90
2017-11-23T11:07:39.429Z,56.50
2017-11-23T11:10:07.103Z,56.80
2017-11-23T11:12:34.642Z,56.70
2017-11-23T11:15:02.234Z,56.60
2017-11-23T11:17:29.765Z,56.70
2017-11-23T11:19:57.340Z,56.70
2017-11-23T11:22:24.909Z,56.60
2017-11-23T11:24:52.822Z,56.80
2017-11-23T11:27:21.122Z,56.90
2017-11-23T11:29:48.694Z,56.90
2017-11-23T11:32:16.258Z,57.00
2017-11-23T11:34:43.796Z,57.50
2017-11-23T11:37:11.371Z,57.80
2017-11-23T11:39:39.006Z,57.70
2017-11-23T11:42:06.649Z,57.90
2017-11-23T11:44:34.182Z,57.70
2017-11-23T11:47:01.742Z,57.90
2017-11-23T11:49:29.448Z,57.90
2017-11-23T11:51:57.003Z,58.20
2017-11-23T11:54:25.307Z,58.30
2017-11-23T11:56:53.061Z,58.40
2017-11-23T11:59:20.610Z,58.50
2017-11-23T12:01:48.969Z,58.20
2017-11-23T12:04:16.538Z,58.20
2017-11-23T12:06:44.071Z,58.10
2017-11-23T12:09:11.652Z,58.00
2017-11-23T12:11:40.397Z,58.50
2017-11-23T12:14:19.689Z,57.90
2017-11-23T12:16:59.775Z,58.10
2017-11-23T12:19:39.282Z,57.90
2017-11-23T12:25:10.509Z,58.40
2017-11-23T12:27:49.877Z,58.40
2017-11-23T12:30:17.578Z,58.60
2017-11-23T12:32:45.178Z,58.50
2017-11-23T12:35:12.721Z,58.70
2017-11-23T12:37:40.327Z,58.90
2017-11-23T12:40:08.644Z,59.00
2017-11-23T12:42:36.206Z,59.00
2017-11-23T12:45:03.752Z,59.10
2017-11-23T12:47:31.369Z,59.00
2017-11-23T12:49:59.026Z,59.60
2017-11-23T12:52:26.668Z,59.00
2017-11-23T12:54:55.227Z,59.20
2017-11-23T12:57:22.787Z,59.20
2017-11-23T12:59:50.415Z,59.20
2017-11-23T13:02:17.983Z,59.20
2017-11-23T13:04:46.317Z,59.20
2017-11-23T13:07:13.906Z,59.20
2017-11-23T13:09:41.483Z,59.10
2017-11-23T13:12:09.042Z,59.30
2017-11-23T13:14:36.678Z,59.30
2017-11-23T13:17:04.203Z,59.70
2017-11-23T13:19:31.721Z,59.60
2017-11-23T13:22:00.064Z,59.10
2017-11-23T13:24:28.203Z,59.10
2017-11-23T13:26:55.837Z,58.80
2017-11-23T13:29:23.390Z,58.40
2017-11-23T13:31:51.761Z,58.70
2017-11-23T13:34:20.089Z,58.10
2017-11-23T13:36:47.771Z,58.00
2017-11-23T13:39:15.430Z,57.90
2017-11-23T13:41:43.081Z,58.10
2017-11-23T13:44:10.653Z,58.30
2017-11-23T13:46:38.285Z,58.50
2017-11-23T13:49:05.893Z,58.40
2017-11-23T13:51:33.421Z,58.50
2017-11-23T13:54:01.001Z,58.60
2017-11-23T13:56:28.572Z,58.60
2017-11-23T13:58:56.255Z,58.90
2017-11-23T14:01:24.634Z,59.20
2017-11-23T14:03:52.979Z,60.60
2017-11-23T14:06:20.515Z,59.10
2017-11-23T14:08:48.081Z,59.10
2017-11-23T14:11:15.694Z,59.20
2017-11-23T14:13:44.011Z,60.20
2017-11-23T14:16:11.569Z,60.10
2017-11-23T14:18:39.274Z,60.30
2017-11-23T14:21:06.854Z,60.60
2017-11-23T14:23:34.415Z,60.70
2017-11-23T14:26:02.064Z,61.40
2017-11-23T14:28:29.594Z,60.70
2017-11-23T14:30:57.133Z,60.40
2017-11-23T14:33:24.707Z,60.70
2017-11-23T14:35:52.270Z,61.00
2017-11-23T14:38:19.822Z,60.90
2017-11-23T14:40:47.420Z,61.20
2017-11-23T14:43:14.952Z,61.20
2017-11-23T14:45:42.501Z,60.80
2017-11-23T14:48:10.071Z,61.00
2017-11-23T14:50:37.698Z,61.60
2017-11-23T14:53:05.254Z,62.00
2017-11-23T14:55:32.884Z,61.60
2017-11-23T14:58:00.407Z,61.60
2017-11-23T15:00:27.987Z,61.90
2017-11-23T15:02:55.528Z,61.80
2017-11-23T15:05:23.057Z,62.10
2017-11-23T15:07:50.617Z,62.90
2017-11-23T15:10:18.164Z,62.60
2017-11-23T15:12:45.705Z,62.20
2017-11-23T15:15:13.298Z,62.00
2017-11-23T15:17:40.890Z,62.50
2017-11-23T15:20:08.728Z,62.50
2017-11-23T15:22:36.486Z,62.60
2017-11-23T15:25:04.109Z,62.50
2017-11-23T15:27:31.649Z,62.70
2017-11-23T15:29:59.184Z,63.00
2017-11-23T15:32:26.745Z,63.40
2017-11-23T15:34:54.300Z,62.90
2017-11-23T15:37:21.883Z,63.00
2017-11-23T15:39:49.804Z,62.50
2017-11-23T15:42:17.358Z,62.30
2017-11-23T15:44:44.952Z,62.40
2017-11-23T15:47:12.568Z,62.40
2017-11-23T15:49:40.126Z,62.60
2017-11-23T15:52:08.499Z,62.30
2017-11-23T15:54:36.799Z,62.70
2017-11-23T15:57:04.327Z,62.50
2017-11-23T15:59:31.895Z,62.50
2017-11-23T16:01:59.513Z,62.10
2017-11-23T16:04:27.062Z,62.20
2017-11-23T16:06:54.806Z,62.00
2017-11-23T16:14:47.048Z,62.30
2017-11-23T16:17:14.661Z,62.30
2017-11-23T16:19:42.282Z,62.10
2017-11-23T16:22:10.431Z,62.10
2017-11-23T16:27:11.415Z,61.90
2017-11-23T16:29:39.059Z,62.20
2017-11-23T16:32:06.724Z,62.10
2017-11-23T16:34:34.429Z,62.00
2017-11-23T16:37:06.952Z,62.00
2017-11-23T16:39:34.604Z,61.90
2017-11-23T16:42:10.008Z,62.20
2017-11-23T16:47:54.040Z,61.70
2017-11-23T16:50:27.299Z,62.00
2017-11-23T16:53:00.468Z,62.10
2017-11-23T16:55:33.854Z,62.20
2017-11-23T16:58:01.450Z,62.20
2017-11-23T17:03:33.966Z,62.30
2017-11-23T17:06:07.307Z,62.20
2017-11-23T17:08:54.647Z,62.10
2017-11-23T17:11:27.795Z,62.00
2017-11-23T17:14:00.939Z,61.80
2017-11-23T17:16:34.330Z,61.80
2017-11-23T17:19:05.621Z,61.70
2017-11-23T17:21:34.060Z,61.80
2017-11-23T17:24:01.773Z,61.40
2017-11-23T17:26:29.415Z,61.30
2017-11-23T17:28:56.971Z,61.00
2017-11-23T17:31:24.666Z,61.00
2017-11-23T17:33:52.263Z,60.90
2017-11-23T17:36:19.906Z,61.00
2017-11-23T17:38:47.564Z,60.60
2017-11-23T17:41:15.269Z,60.30
2017-11-23T17:46:10.401Z,60.30
2017-11-23T17:48:38.039Z,60.00
2017-11-23T17:51:05.601Z,60.00
2017-11-23T17:53:33.174Z,59.90
2017-11-23T17:56:00.787Z,59.90
2017-11-23T17:58:28.393Z,59.70
2017-11-23T18:00:55.946Z,59.60
2017-11-23T18:03:23.584Z,59.70
2017-11-23T18:05:51.170Z,59.60
2017-11-23T18:08:18.801Z,59.60
2017-11-23T18:10:46.367Z,59.60
2017-11-23T18:13:13.961Z,59.60
2017-11-23T18:23:03.094Z,59.80
2017-11-23T18:27:57.274Z,61.60
2017-11-23T18:30:24.872Z,61.20
2017-11-23T18:32:52.443Z,60.60
2017-11-23T18:35:20.018Z,60.40
2017-11-23T18:37:47.624Z,60.10
2017-11-23T18:40:15.159Z,60.20
2017-11-23T18:42:42.755Z,59.90
2017-11-23T18:45:10.293Z,60.10
2017-11-23T18:47:37.882Z,60.30
2017-11-23T18:50:06.233Z,60.30
2017-11-23T18:52:33.803Z,60.30
2017-11-23T18:55:01.360Z,60.30
2017-11-23T18:57:28.985Z,60.40
2017-11-23T18:59:56.670Z,60.40
2017-11-23T19:02:24.329Z,60.40
2017-11-23T19:04:51.887Z,60.40
2017-11-23T19:07:19.536Z,60.20
2017-11-23T19:09:47.114Z,60.20
2017-11-23T19:12:14.697Z,60.60
2017-11-23T19:14:42.264Z,59.90
2017-11-23T19:17:09.910Z,59.70
2017-11-23T19:19:37.433Z,59.50
2017-11-23T19:22:05.022Z,59.40
2017-11-23T19:24:32.619Z,59.70
2017-11-23T19:27:00.193Z,59.60
2017-11-23T19:29:27.782Z,59.60
2017-11-23T19:31:55.406Z,59.70
2017-11-23T19:34:23.030Z,59.90
2017-11-23T19:36:50.621Z,59.70
2017-11-23T19:39:18.222Z,59.70
2017-11-23T19:41:45.834Z,59.80
2017-11-23T19:44:13.480Z,59.90
2017-11-23T19:46:41.121Z,60.00
2017-11-23T19:49:08.699Z,59.80
2017-11-23T19:51:36.297Z,59.70
2017-11-23T19:54:03.920Z,59.50
2017-11-23T19:56:31.489Z,59.60
2017-11-23T19:58:59.146Z,59.60
2017-11-23T20:01:26.757Z,59.60
2017-11-23T20:03:55.076Z,59.60
2017-11-23T20:06:22.668Z,59.40
2017-11-23T20:08:51.044Z,59.80
2017-11-23T20:11:19.421Z,59.60
2017-11-23T20:13:47.067Z,59.50
2017-11-23T20:16:14.677Z,59.20
2017-11-23T20:18:42.323Z,59.40
2017-11-23T20:21:09.932Z,59.50
2017-11-23T20:23:37.516Z,59.30
2017-11-23T20:26:05.139Z,59.40
2017-11-23T20:28:32.800Z,59.50
2017-11-23T20:31:00.394Z,59.30
2017-11-23T20:33:28.033Z,59.50
2017-11-23T20:35:55.663Z,59.20
2017-11-23T20:38:23.266Z,59.30
2017-11-23T20:40:50.868Z,59.00
2017-11-23T20:43:18.461Z,59.20
2017-11-23T20:45:46.086Z,59.00
2017-11-23T20:48:13.712Z,58.90
2017-11-23T20:50:41.333Z,59.10
2017-11-23T20:53:08.969Z,59.00
2017-11-23T20:55:36.503Z,59.20
2017-11-23T20:58:04.090Z,59.30
2017-11-23T21:00:31.739Z,59.40
2017-11-23T21:02:59.263Z,59.40
2017-11-23T21:05:26.877Z,59.50
2017-11-23T21:07:54.485Z,59.60
2017-11-23T21:10:22.126Z,59.30
2017-11-23T21:12:49.758Z,59.50
2017-11-23T21:15:17.387Z,59.00
2017-11-23T21:17:45.021Z,59.10
2017-11-23T21:20:12.598Z,59.20
2017-11-23T21:22:40.175Z,59.00
2017-11-23T21:25:07.851Z,58.90
2017-11-23T21:27:35.441Z,58.70
2017-11-23T21:30:03.077Z,58.90
2017-11-23T21:32:30.681Z,58.70
2017-11-23T21:34:58.343Z,58.90
2017-11-23T21:37:25.978Z,59.10
2017-11-23T21:39:53.562Z,59.00
2017-11-23T21:42:21.181Z,59.10
2017-11-23T21:44:49.507Z,59.10
2017-11-23T21:47:17.112Z,59.90
2017-11-23T21:49:44.723Z,58.70
2017-11-23T21:52:12.291Z,59.80
2017-11-23T21:54:39.884Z,59.90
2017-11-23T21:57:07.446Z,59.90
2017-11-23T21:59:35.019Z,60.00
2017-11-23T22:02:02.630Z,60.00
2017-11-23T22:04:30.237Z,60.40
2017-11-23T22:06:57.809Z,60.50
2017-11-23T22:09:25.449Z,60.60
2017-11-23T22:11:54.046Z,60.50
2017-11-23T22:14:22.383Z,60.50
2017-11-23T22:16:49.941Z,60.40
2017-11-23T22:19:17.514Z,60.70
2017-11-23T22:21:45.117Z,60.70
2017-11-23T22:24:12.666Z,60.60
2017-11-23T22:26:40.261Z,60.30
2017-11-23T22:29:07.829Z,60.50
2017-11-23T22:31:35.426Z,60.20
2017-11-23T22:34:03.844Z,60.40
2017-11-23T22:36:31.450Z,60.20
2017-11-23T22:38:59.023Z,60.30
2017-11-23T22:41:26.596Z,60.70
2017-11-23T22:43:54.206Z,60.90
2017-11-23T22:46:21.777Z,61.40
2017-11-23T22:48:49.347Z,60.70
2017-11-23T22:51:16.924Z,60.70
2017-11-23T22:53:44.571Z,60.60
2017-11-23T22:56:12.103Z,60.70
2017-11-23T22:58:39.666Z,60.70
2017-11-23T23:01:07.234Z,61.10
2017-11-23T23:03:35.528Z,61.30
2017-11-23T23:06:03.133Z,61.30
2017-11-23T23:08:30.650Z,60.90
2017-11-23T23:10:58.260Z,60.60
2017-11-23T23:13:25.798Z,60.60
2017-11-23T23:15:53.400Z,60.60
2017-11-23T23:18:21.005Z,60.70
2017-11-23T23:20:48.538Z,60.50
2017-11-23T23:23:16.140Z,60.70
2017-11-23T23:25:43.675Z,60.50
2017-11-23T23:28:11.223Z,60.70
2017-11-23T23:30:38.820Z,60.70
2017-11-23T23:33:07.142Z,60.70
2017-11-23T23:35:34.658Z,60.60
2017-11-23T23:38:02.981Z,60.40
2017-11-23T23:40:30.557Z,60.30
2017-11-23T23:42:58.106Z,60.10
2017-11-23T23:45:25.711Z,60.00
2017-11-23T23:47:54.041Z,60.10
2017-11-23T23:50:21.575Z,60.00
2017-11-23T23:52:49.143Z,60.30
2017-11-23T23:55:16.662Z,60.10
2017-11-23T23:57:44.230Z,60.20
